createdAt,value
2016-09-15T06:01:47.163Z,18.59
2016-09-15T06:02:34.966Z,18.73
2016-09-15T06:03:32.917Z,18.75
2016-09-15T06:04:34.005Z,18.73
2016-09-15T06:05:33.100Z,18.68
2016-09-15T06:06:33.664Z,18.75
2016-09-15T06:07:33.280Z,18.77
2016-09-15T06:08:33.925Z,18.59
2016-09-15T06:09:33.142Z,18.56
2016-09-15T06:10:32.546Z,18.49
2016-09-15T06:11:32.862Z,18.47
2016-09-15T06:12:33.730Z,18.43
2016-09-15T06:13:34.209Z,18.68
2016-09-15T06:14:33.541Z,18.7
2016-09-15T06:15:34.329Z,18.7
2016-09-15T06:16:33.736Z,18.7
2016-09-15T06:17:33.216Z,18.95
2016-09-15T06:18:33.244Z,18.99
2016-09-15T06:19:33.846Z,19.02
2016-09-15T06:20:33.168Z,18.96
2016-09-15T06:21:33.437Z,19.09
2016-09-15T06:22:34.308Z,19.19
2016-09-15T06:23:34.391Z,19.19
2016-09-15T06:24:33.867Z,19.16
2016-09-15T06:25:34.846Z,19.21
2016-09-15T06:26:34.818Z,19.19
2016-09-15T06:27:34.260Z,19.27
2016-09-15T06:28:35.656Z,19.29
2016-09-15T06:29:33.579Z,19.36
2016-09-15T06:30:35.918Z,19.27
2016-09-15T06:31:33.504Z,19.44
2016-09-15T06:32:34.742Z,19.4
2016-09-15T06:33:34.299Z,19.49
2016-09-15T06:34:33.775Z,19.51
2016-09-15T06:35:33.674Z,19.49
2016-09-15T06:36:33.565Z,19.56
2016-09-15T06:37:33.560Z,19.34
2016-09-15T06:38:33.598Z,19.48
2016-09-15T06:39:34.183Z,19.55
2016-09-15T06:40:34.261Z,19.51
2016-09-15T06:41:34.741Z,19.58
2016-09-15T06:42:33.685Z,19.55
2016-09-15T06:43:34.989Z,19.79
2016-09-15T06:44:35.070Z,19.7
2016-09-15T06:45:35.017Z,19.74
2016-09-15T06:46:35.188Z,19.94
2016-09-15T06:47:35.558Z,19.88
2016-09-15T06:48:35.430Z,20
2016-09-15T06:49:35.409Z,20.1
2016-09-15T06:50:35.348Z,20.09
2016-09-15T06:51:34.315Z,20.19
2016-09-15T06:52:34.837Z,19.85
2016-09-15T06:53:34.447Z,19.99
2016-09-15T06:54:34.220Z,20.16
2016-09-15T06:55:34.667Z,20.26
2016-09-15T06:56:35.064Z,20.32
2016-09-15T06:57:34.321Z,20.34
2016-09-15T06:58:34.385Z,20.43
2016-09-15T06:59:34.430Z,20.51
2016-09-15T07:00:35.361Z,20.6
2016-09-15T07:01:34.524Z,20.74
2016-09-15T07:02:35.722Z,20.84
2016-09-15T07:03:35.746Z,20.96
2016-09-15T07:04:34.611Z,20.96
2016-09-15T07:05:34.511Z,20.99
2016-09-15T07:06:35.760Z,21.11
2016-09-15T07:07:34.805Z,21.06
2016-09-15T07:08:34.183Z,21.12
2016-09-15T07:09:34.567Z,21.11
2016-09-15T07:10:35.494Z,21.03
2016-09-15T07:11:34.944Z,21.12
2016-09-15T07:12:35.248Z,21.15
2016-09-15T07:13:36.742Z,21.33
2016-09-15T07:14:37.301Z,21.15
2016-09-15T07:15:34.410Z,21.37
2016-09-15T07:16:35.422Z,21.51
2016-09-15T07:17:35.036Z,21.61
2016-09-15T07:18:35.984Z,21.6
2016-09-15T07:19:35.405Z,21.6
2016-09-15T07:20:35.233Z,21.72
2016-09-15T07:21:35.540Z,21.82
2016-09-15T07:22:36.101Z,22.15
2016-09-15T07:23:35.538Z,22.29
2016-09-15T07:24:35.393Z,22.25
2016-09-15T07:25:35.014Z,22.39
2016-09-15T07:26:36.331Z,22.53
2016-09-15T07:27:36.140Z,22.36
2016-09-15T07:28:36.033Z,22.51
2016-09-15T07:29:34.842Z,22.73
2016-09-15T07:30:35.295Z,22.68
2016-09-15T07:31:35.280Z,22.72
2016-09-15T07:32:35.771Z,22.78
2016-09-15T07:33:35.184Z,22.81
2016-09-15T07:34:35.585Z,22.84
2016-09-15T07:35:35.646Z,22.85
2016-09-15T07:36:35.261Z,23.06
2016-09-15T07:37:35.610Z,23.31
2016-09-15T07:38:36.958Z,23.4
2016-09-15T07:39:35.773Z,23.47
2016-09-15T07:40:37.181Z,23.31
2016-09-15T07:41:35.520Z,23.32
2016-09-15T07:42:35.466Z,23.27
2016-09-15T07:43:37.107Z,23.43
2016-09-15T07:44:35.705Z,23.5
2016-09-15T07:45:35.934Z,23.63
2016-09-15T07:46:36.183Z,23.46
2016-09-15T07:47:35.863Z,23.32
2016-09-15T07:48:35.783Z,23.44
2016-09-15T07:49:35.839Z,23.25
2016-09-15T07:50:36.230Z,23.12
2016-09-15T07:51:36.289Z,23.5
2016-09-15T07:52:35.917Z,23.15
2016-09-15T07:53:37.905Z,23.36
2016-09-15T07:54:37.023Z,23.61
2016-09-15T07:55:36.650Z,23.83
2016-09-15T07:56:35.625Z,24.17
2016-09-15T07:57:36.628Z,24.1
2016-09-15T07:58:36.289Z,23.71
2016-09-15T07:59:36.096Z,24.1
2016-09-15T08:00:36.897Z,24.28
2016-09-15T08:01:36.502Z,24.48
2016-09-15T08:02:36.618Z,24.5
2016-09-15T08:03:36.508Z,24.54
2016-09-15T08:04:36.535Z,24.38
2016-09-15T08:05:37.756Z,24.4
2016-09-15T08:46:00.735Z,25.81
2016-09-15T08:47:00.048Z,25.88
2016-09-15T08:47:59.244Z,25.62
2016-09-15T08:49:00.402Z,25.95
2016-09-15T08:49:59.022Z,25.96
2016-09-15T08:50:59.539Z,26.16
2016-09-15T08:52:00.158Z,26.07
2016-09-15T08:53:00.833Z,26.26
2016-09-15T08:54:00.068Z,26.18
2016-09-15T08:55:00.068Z,26.28
2016-09-15T08:55:59.554Z,25.77
2016-09-15T08:57:00.124Z,25.99
2016-09-15T08:58:00.679Z,25.44
2016-09-15T08:59:00.752Z,25.38
2016-09-15T08:59:59.534Z,25.44
2016-09-15T09:01:00.368Z,26.02
2016-09-15T09:01:59.890Z,25.58
2016-09-15T09:02:59.390Z,26.09
2016-09-15T09:03:59.419Z,26.22
2016-09-15T09:05:00.925Z,26.63
2016-09-15T09:05:59.706Z,26.41
2016-09-15T09:07:00.486Z,26.45
2016-09-15T09:08:00.859Z,26.33
2016-09-15T09:09:00.978Z,26.19
2016-09-15T09:10:00.908Z,26.59
2016-09-15T09:10:59.862Z,26.03
2016-09-15T09:12:00.159Z,26.21
2016-09-15T09:13:00.823Z,26.51
2016-09-15T09:14:01.025Z,26.25
2016-09-15T09:15:01.167Z,26.44
2016-09-15T09:16:00.399Z,26.71
2016-09-15T09:17:00.680Z,26.43
2016-09-15T09:18:00.718Z,26.44
2016-09-15T09:19:00.678Z,26.81
2016-09-15T09:20:02.133Z,26.63
2016-09-15T09:21:01.097Z,26.89
2016-09-15T09:22:01.322Z,26.41
2016-09-15T09:23:01.482Z,26.88
2016-09-15T09:24:00.840Z,27
2016-09-15T09:25:00.683Z,26.73
2016-09-15T09:26:00.764Z,26.85
2016-09-15T09:27:01.427Z,26.93
2016-09-15T09:28:00.910Z,26.95
2016-09-15T09:29:01.060Z,27.26
2016-09-15T09:30:01.221Z,27.03
2016-09-15T09:31:02.039Z,27.15
2016-09-15T09:32:00.569Z,26.99
2016-09-15T09:33:01.232Z,27.11
2016-09-15T09:34:02.222Z,26.22
2016-09-15T09:35:00.936Z,26.83
2016-09-15T09:36:01.661Z,27.39
2016-09-15T09:37:00.702Z,27.07
2016-09-15T09:38:00.224Z,27.36
2016-09-15T09:39:02.709Z,27.64
2016-09-15T09:40:00.650Z,27.12
2016-09-15T09:41:02.113Z,27.3
2016-09-15T09:42:00.488Z,27.67
2016-09-15T09:43:01.081Z,28.12
2016-09-15T09:44:01.152Z,27.74
2016-09-15T09:45:01.949Z,27.63
2016-09-15T09:46:02.303Z,27.48
2016-09-15T09:47:01.453Z,27.39
2016-09-15T09:48:01.840Z,27.3
2016-09-15T09:49:02.457Z,27.03
2016-09-15T09:50:01.004Z,27.73
2016-09-15T09:51:02.739Z,27.59
2016-09-15T09:52:03.583Z,27.48
2016-09-15T09:53:01.625Z,27.29
2016-09-15T09:54:01.055Z,27.3
2016-09-15T09:55:00.870Z,27.9
2016-09-15T09:56:01.244Z,28.2
2016-09-15T09:57:02.881Z,28.14
2016-09-15T09:58:02.559Z,28.49
2016-09-15T09:59:01.729Z,28.33
2016-09-15T10:00:02.289Z,28.48
2016-09-15T10:01:02.384Z,28.27
2016-09-15T10:02:00.654Z,27.73
2016-09-15T10:03:00.888Z,27.27
2016-09-15T10:04:02.405Z,27.93
2016-09-15T10:05:01.318Z,28.47
2016-09-15T10:06:01.361Z,28.25
2016-09-15T10:07:02.111Z,28.64
2016-09-15T10:08:03.311Z,29.27
2016-09-15T10:09:01.699Z,29.72
2016-09-15T10:10:03.036Z,29.1
2016-09-15T10:11:01.302Z,28.48
2016-09-15T10:12:01.751Z,28.29
2016-09-15T10:13:02.776Z,28.82
2016-09-15T10:14:03.451Z,28.17
2016-09-15T10:15:02.408Z,28.52
2016-09-15T10:16:01.913Z,29.26
2016-09-15T10:17:02.333Z,28.74
2016-09-15T10:18:04.102Z,28.7
2016-09-15T10:19:02.338Z,28.23
2016-09-15T10:20:03.061Z,27.96
2016-09-15T10:21:02.936Z,28.66
2016-09-15T10:22:02.310Z,28.62
2016-09-15T10:23:02.512Z,28.86
2016-09-15T10:24:01.897Z,29.05
2016-09-15T10:25:03.876Z,28.41
2016-09-15T10:26:02.915Z,29.47
2016-09-15T10:27:04.397Z,29.73
2016-09-15T10:28:01.907Z,28.47
2016-09-15T10:29:02.742Z,28.98
2016-09-15T10:30:04.356Z,29.08
2016-09-15T10:31:03.141Z,29.22
2016-09-15T10:32:02.914Z,29.32
2016-09-15T10:33:03.145Z,28.42
2016-09-15T10:34:02.907Z,29.29
2016-09-15T10:35:05.177Z,29.26
2016-09-15T10:36:03.602Z,29.79
2016-09-15T10:37:04.355Z,29.82
2016-09-15T10:38:03.400Z,30.85
2016-09-15T10:39:03.946Z,29.98
2016-09-15T10:40:04.110Z,30.37
2016-09-15T10:41:02.220Z,29.32
2016-09-15T10:42:02.531Z,29.73
2016-09-15T10:43:03.057Z,29.26
2016-09-15T10:44:04.728Z,29.93
2016-09-15T10:45:02.623Z,29.72
2016-09-15T10:46:04.044Z,28.91
2016-09-15T10:47:03.019Z,29.87
2016-09-15T10:48:04.420Z,30.39
2016-09-15T10:49:03.537Z,30.39
2016-09-15T10:50:04.213Z,29.94
2016-09-15T10:51:03.818Z,30.37
2016-09-15T10:52:03.542Z,29.68
2016-09-15T10:53:04.340Z,30.34
2016-09-15T10:54:05.053Z,30.54
2016-09-15T10:55:03.891Z,31.22
2016-09-15T10:56:04.702Z,31.29
2016-09-15T10:57:04.291Z,29.9
2016-09-15T10:58:04.411Z,30.68
2016-09-15T10:59:03.475Z,30.27
2016-09-15T11:00:04.004Z,30.59
2016-09-15T11:01:03.819Z,30.69
2016-09-15T11:02:03.792Z,29.63
2016-09-15T11:03:03.775Z,29.2
2016-09-15T11:04:03.446Z,29.56
2016-09-15T11:05:03.519Z,30.51
2016-09-15T11:06:03.714Z,30.78
2016-09-15T11:07:04.271Z,30.3
2016-09-15T11:08:03.748Z,30.77
2016-09-15T11:09:04.278Z,30.97
2016-09-15T11:10:06.575Z,31.24
2016-09-15T11:11:04.540Z,30.02
2016-09-15T11:12:03.242Z,29.98
2016-09-15T11:13:04.386Z,30.12
2016-09-15T11:14:03.891Z,30.53
2016-09-15T11:15:05.686Z,30.78
2016-09-15T11:16:04.113Z,31.09
2016-09-15T11:17:03.711Z,30.15
2016-09-15T11:18:04.175Z,30.1
2016-09-15T11:19:05.153Z,29.61
2016-09-15T11:20:03.868Z,30.12
2016-09-15T11:21:04.554Z,31.03
2016-09-15T11:22:03.051Z,30.31
2016-09-15T11:23:04.746Z,30.43
2016-09-15T11:24:04.537Z,30.24
2016-09-15T11:25:07.477Z,29.87
2016-09-15T11:26:05.737Z,30.69
2016-09-15T11:27:04.869Z,30.73
2016-09-15T11:28:04.139Z,30.35
2016-09-15T11:29:04.611Z,30.9
2016-09-15T11:30:04.871Z,31.02
2016-09-15T11:31:04.361Z,30.81
2016-09-15T11:32:04.348Z,31.34
2016-09-15T11:33:05.565Z,31.55
2016-09-15T11:34:05.399Z,31.56
2016-09-15T11:35:04.935Z,31.21
2016-09-15T11:36:04.756Z,30.57
2016-09-15T11:37:04.057Z,31.71
2016-09-15T11:38:06.447Z,31.71
2016-09-15T11:39:05.070Z,31.76
2016-09-15T11:40:05.778Z,30.39
2016-09-15T11:41:04.420Z,30.15
2016-09-15T11:42:08.587Z,31.21
2016-09-15T11:43:05.705Z,30.25
2016-09-15T11:44:04.376Z,30.65
2016-09-15T11:45:05.692Z,31.47
2016-09-15T11:46:05.721Z,31.18
2016-09-15T11:47:05.766Z,31.42
2016-09-15T11:48:05.398Z,31.96
2016-09-15T11:49:04.616Z,31.24
2016-09-15T11:50:06.897Z,31.54
2016-09-15T11:51:05.478Z,31.58
2016-09-15T11:52:05.210Z,31.21
2016-09-15T11:53:05.472Z,31.54
2016-09-15T11:54:05.156Z,31.33
2016-09-15T11:55:06.246Z,30.55
2016-09-15T11:56:06.333Z,30.97
2016-09-15T11:57:04.922Z,31.28
2016-09-15T11:58:05.419Z,31.21
2016-09-15T11:59:05.813Z,31.18
2016-09-15T12:00:06.404Z,31.37
2016-09-15T12:01:06.907Z,31.55
2016-09-15T12:02:05.783Z,31.8
2016-09-15T12:03:05.896Z,31.89
2016-09-15T12:04:06.556Z,31.61
2016-09-15T12:05:06.730Z,31.47
2016-09-15T12:06:06.319Z,31.52
2016-09-15T12:07:06.325Z,31.42
2016-09-15T12:08:06.876Z,32.22
2016-09-15T12:09:04.744Z,32.15
2016-09-15T12:10:06.060Z,32
2016-09-15T12:11:06.168Z,31.25
2016-09-15T12:12:08.078Z,31.71
2016-09-15T12:13:07.019Z,31.74
2016-09-15T12:14:08.632Z,31.36
2016-09-15T12:15:07.263Z,31.14
2016-09-15T12:16:06.816Z,31.62
2016-09-15T12:17:06.739Z,31.9
2016-09-15T12:18:05.790Z,31.58
2016-09-15T12:19:06.837Z,31.7
2016-09-15T12:20:07.202Z,31.36
2016-09-15T12:21:05.920Z,31.73
2016-09-15T12:22:06.717Z,31.28
2016-09-15T12:23:05.728Z,31.62
2016-09-15T12:24:06.754Z,32.19
2016-09-15T12:25:06.133Z,32.18
2016-09-15T12:26:06.306Z,32.38
2016-09-15T12:27:07.831Z,32.38
2016-09-15T12:28:06.869Z,31.7
2016-09-15T12:29:05.719Z,31.78
2016-09-15T12:30:06.163Z,31.73
2016-09-15T12:31:07.141Z,31.49
2016-09-15T12:32:07.599Z,32
2016-09-15T12:33:06.155Z,32
2016-09-15T12:34:06.621Z,32.15
2016-09-15T12:35:06.542Z,31.87
2016-09-15T12:36:08.351Z,32.34
2016-09-15T12:37:06.858Z,31.51
2016-09-15T12:38:05.906Z,31.52
2016-09-15T12:39:06.296Z,31.24
2016-09-15T12:40:05.944Z,31.31
2016-09-15T12:41:06.916Z,31.61
2016-09-15T12:42:07.510Z,30.85
2016-09-15T12:43:07.246Z,31.55
2016-09-15T12:44:06.725Z,30.55
2016-09-15T12:45:07.259Z,31.66
2016-09-15T12:46:06.929Z,32.01
2016-09-15T12:47:06.478Z,31.74
2016-09-15T12:48:07.521Z,32.12
2016-09-15T12:49:07.362Z,32.3
2016-09-15T12:50:07.207Z,31.64
2016-09-15T12:51:09.186Z,32.08
2016-09-15T12:52:07.215Z,31.59
2016-09-15T12:53:07.058Z,31.12
2016-09-15T12:54:07.860Z,31.02
2016-09-15T12:55:06.920Z,31.85
2016-09-15T12:56:07.858Z,32.18
2016-09-15T12:57:07.166Z,32.49
2016-09-15T12:58:07.129Z,32.51
2016-09-15T12:59:07.916Z,31.9
2016-09-15T13:00:07.164Z,32.8
2016-09-15T13:01:08.866Z,32.3
2016-09-15T13:02:08.785Z,32.77
2016-09-15T13:03:08.529Z,32.97
2016-09-15T13:04:09.079Z,32.04
2016-09-15T13:05:08.489Z,31.99
2016-09-15T13:06:08.082Z,31.55
2016-09-15T13:07:07.054Z,31.93
2016-09-15T13:08:07.679Z,32.14
2016-09-15T13:09:08.810Z,31.99
2016-09-15T13:10:08.444Z,32.26
2016-09-15T13:11:07.766Z,32.26
2016-09-15T13:12:07.642Z,31.84
2016-09-15T13:13:09.719Z,32.3
2016-09-15T13:14:08.925Z,32.15
2016-09-15T13:15:08.104Z,32.36
2016-09-15T13:16:08.798Z,32.11
2016-09-15T13:17:07.983Z,32.03
2016-09-15T13:18:09.393Z,31.47
2016-09-15T13:19:08.140Z,31.81
2016-09-15T13:20:08.523Z,32.03
2016-09-15T13:21:08.112Z,32.16
2016-09-15T13:22:08.713Z,32.53
2016-09-15T13:23:08.548Z,32.12
2016-09-15T13:24:09.047Z,32.4
2016-09-15T13:25:09.052Z,32.64
2016-09-15T13:26:08.384Z,32.3
2016-09-15T13:27:08.585Z,31.21
2016-09-15T13:28:08.988Z,32.14
2016-09-15T13:29:08.024Z,32.75
2016-09-15T13:30:08.254Z,32.55
2016-09-15T13:31:09.439Z,32.86
2016-09-15T13:32:09.863Z,32.59
2016-09-15T13:33:08.697Z,32.23
2016-09-15T13:34:09.252Z,32.01
2016-09-15T13:35:08.387Z,31.99
2016-09-15T13:36:08.493Z,31.52
2016-09-15T13:37:09.449Z,31.27
2016-09-15T13:38:08.480Z,31.96
2016-09-15T13:39:08.595Z,32.3
2016-09-15T13:40:09.253Z,32.41
2016-09-15T13:41:11.170Z,32.67
2016-09-15T13:42:09.520Z,32.71
2016-09-15T13:43:09.399Z,33.01
2016-09-15T13:44:09.166Z,33.04
2016-09-15T13:45:09.200Z,32.78
2016-09-15T13:46:08.674Z,33.05
2016-09-15T13:47:08.598Z,32.75
2016-09-15T13:48:10.435Z,32.59
2016-09-15T13:49:08.738Z,32.78
2016-09-15T13:50:09.073Z,32.83
2016-09-15T13:51:11.139Z,32.92
2016-09-15T13:52:09.529Z,32.51
2016-09-15T13:53:11.781Z,32.58
2016-09-15T13:54:09.917Z,32.14
2016-09-15T13:55:10.467Z,32.43
2016-09-15T13:56:09.066Z,32.27
2016-09-15T13:57:09.173Z,32.11
2016-09-15T13:58:09.549Z,32.46
2016-09-15T13:59:09.944Z,32.86
2016-09-15T14:00:10.026Z,33.14
2016-09-15T14:01:10.690Z,32.87
2016-09-15T14:02:09.507Z,33.28
2016-09-15T14:03:10.690Z,32.77
2016-09-15T14:04:09.339Z,33.05
2016-09-15T14:05:09.720Z,32.93
2016-09-15T14:06:09.741Z,32.73
2016-09-15T14:07:09.934Z,31.89
2016-09-15T14:08:10.617Z,32.78
2016-09-15T14:09:12.370Z,32.6
2016-09-15T14:10:11.561Z,32.49
2016-09-15T14:11:10.681Z,31.47
2016-09-15T14:12:09.676Z,31.84
2016-09-15T14:13:10.403Z,32.65
2016-09-15T14:14:09.542Z,32.31
2016-09-15T14:15:10.012Z,32.23
2016-09-15T14:16:11.136Z,32.38
2016-09-15T14:17:09.988Z,33.09
2016-09-15T14:18:09.730Z,33.19
2016-09-15T14:19:09.902Z,32.53
2016-09-15T14:20:10.386Z,32.58
2016-09-15T14:21:09.913Z,31.99
2016-09-15T14:22:09.785Z,32.53
2016-09-15T14:23:10.935Z,32.12
2016-09-15T14:24:12.115Z,31.64
2016-09-15T14:25:11.210Z,32.86
2016-09-15T14:26:10.953Z,32.6
2016-09-15T14:27:11.540Z,32.86
2016-09-15T14:28:12.006Z,32.51
2016-09-15T14:29:11.941Z,31.81
2016-09-15T14:30:11.135Z,31.74
2016-09-15T14:31:11.016Z,31.56
2016-09-15T14:32:11.499Z,32.01
2016-09-15T14:33:10.210Z,32.3
2016-09-15T14:34:11.800Z,32.75
2016-09-15T14:35:10.233Z,32.9
2016-09-15T14:36:11.825Z,32.55
2016-09-15T14:37:12.162Z,32.27
2016-09-15T14:38:11.611Z,32.65
2016-09-15T14:39:09.985Z,32.83
2016-09-15T14:40:11.335Z,32.7
2016-09-15T14:41:11.449Z,33.19
2016-09-15T14:42:11.565Z,32.87
2016-09-15T14:43:10.605Z,32.9
2016-09-15T14:44:11.691Z,32.59
2016-09-15T14:45:10.712Z,32.74
2016-09-15T14:46:11.187Z,32.45
2016-09-15T14:47:11.814Z,31.69
2016-09-15T14:48:11.613Z,32.29
2016-09-15T14:49:11.542Z,31.92
2016-09-15T14:50:11.612Z,31.76
2016-09-15T14:51:11.263Z,32.58
2016-09-15T14:52:11.686Z,32.53
2016-09-15T14:53:12.509Z,32.56
2016-09-15T14:54:11.540Z,31.94
2016-09-15T14:55:12.121Z,32
2016-09-15T14:56:11.411Z,31.39
2016-09-15T14:57:12.059Z,31.71
2016-09-15T14:58:12.584Z,31.85
2016-09-15T14:59:12.436Z,32.33
2016-09-15T15:00:10.973Z,31.9
2016-09-15T15:01:12.164Z,31.92
2016-09-15T15:02:11.575Z,31.56
2016-09-15T15:03:12.570Z,31.73
2016-09-15T15:04:12.017Z,31.87
2016-09-15T15:05:13.009Z,31.99
2016-09-15T15:06:11.689Z,31.89
2016-09-15T15:07:12.263Z,31.65
2016-09-15T15:08:13.282Z,31.76
2016-09-15T15:09:11.602Z,31.66
2016-09-15T15:10:12.667Z,31.65
2016-09-15T15:11:11.599Z,32
2016-09-15T15:12:13.759Z,31.49
2016-09-15T15:13:12.321Z,31.65
2016-09-15T15:14:12.341Z,-39.99
2016-09-15T15:15:12.490Z,-39.99
2016-09-15T15:16:12.185Z,-39.99
2016-09-15T15:17:12.875Z,-39.99
2016-09-15T15:18:14.002Z,-39.99
2016-09-15T15:19:12.207Z,-39.99
2016-09-15T15:20:12.713Z,-39.99
2016-09-15T15:21:12.414Z,-39.99
2016-09-15T15:22:12.709Z,-39.99
2016-09-15T15:23:12.908Z,-39.99
2016-09-15T15:24:13.882Z,-39.99
2016-09-15T15:25:12.012Z,-39.99
2016-09-15T15:26:13.035Z,-39.99
2016-09-15T15:27:12.801Z,-39.99
2016-09-15T15:28:13.084Z,-39.99
2016-09-15T15:29:13.253Z,-39.99
2016-09-15T15:30:12.244Z,-39.99
2016-09-15T15:31:12.983Z,-39.99
2016-09-15T15:32:12.970Z,-39.99
2016-09-15T15:33:13.712Z,-39.99
2016-09-15T15:34:12.838Z,-39.99
2016-09-15T15:35:13.821Z,-39.99
2016-09-15T15:36:12.629Z,-39.99
2016-09-15T15:37:12.662Z,-39.99
2016-09-15T15:38:13.327Z,-39.99
2016-09-15T15:39:14.182Z,-39.99
2016-09-15T15:40:14.157Z,-39.99
2016-09-15T15:41:13.801Z,-39.99
2016-09-15T15:42:14.519Z,-39.99
2016-09-15T15:43:12.722Z,-39.99
2016-09-15T15:44:13.513Z,-39.99
2016-09-15T15:45:13.023Z,-39.99
2016-09-15T15:46:12.738Z,-39.99
2016-09-15T15:47:14.543Z,-39.99
2016-09-15T15:48:13.142Z,-39.99
2016-09-15T15:49:12.857Z,-39.99
2016-09-15T15:50:15.326Z,-39.99
2016-09-15T15:51:13.876Z,-39.99
2016-09-15T15:52:15.324Z,-39.99
2016-09-15T15:53:13.550Z,-39.99
2016-09-15T15:54:14.246Z,-39.99
2016-09-15T15:55:12.590Z,-39.99
2016-09-15T15:56:13.456Z,-39.99
2016-09-15T15:57:13.043Z,-39.99
2016-09-15T15:58:14.314Z,-39.99
2016-09-15T15:59:14.426Z,-39.99
2016-09-15T16:00:13.399Z,-39.99
2016-09-15T16:01:15.246Z,-39.99
2016-09-15T16:02:13.043Z,-39.99
2016-09-15T16:03:14.595Z,-39.99
2016-09-15T16:04:14.658Z,-39.99
2016-09-15T16:05:13.076Z,-39.99
2016-09-15T16:06:14.543Z,-39.99
2016-09-15T16:07:13.738Z,-39.99
2016-09-15T16:08:14.316Z,-39.99
2016-09-15T16:09:45.196Z,30.1
2016-09-15T16:10:43.545Z,30.55
2016-09-15T16:11:44.675Z,30.02
2016-09-15T16:12:44.622Z,29.87
2016-09-15T16:13:44.245Z,29.86
2016-09-15T16:14:45.219Z,29.56
2016-09-15T16:15:45.131Z,29.44
2016-09-15T16:16:44.831Z,30.28
2016-09-15T16:17:45.008Z,29.84
2016-09-15T16:18:44.852Z,29.84
2016-09-15T16:19:45.377Z,29.6
2016-09-15T16:20:44.901Z,29.82
2016-09-15T16:21:44.817Z,29.72
2016-09-15T16:22:44.302Z,29.49
2016-09-15T16:23:45.133Z,29.79
2016-09-15T16:24:45.251Z,29.63
2016-09-15T16:25:45.448Z,30
2016-09-15T16:26:44.752Z,29.79
2016-09-15T16:27:45.013Z,29.35
2016-09-15T16:28:44.663Z,29.49
2016-09-15T16:29:45.431Z,29.35
2016-09-15T16:30:45.209Z,29.35
2016-09-15T16:31:45.059Z,29.44
2016-09-15T16:32:46.196Z,29.2
2016-09-15T16:33:45.285Z,28.91
2016-09-15T16:34:44.930Z,29.01
2016-09-15T16:35:46.383Z,28.78
2016-09-15T16:36:44.684Z,29.05
2016-09-15T16:37:45.170Z,28.97
2016-09-15T16:38:45.391Z,29.27
2016-09-15T16:39:44.345Z,28.98
2016-09-15T16:40:45.735Z,28.98
2016-09-15T16:41:45.206Z,28.91
2016-09-15T16:42:45.294Z,28.91
2016-09-15T16:43:45.730Z,28.82
2016-09-15T16:44:46.260Z,28.69
2016-09-15T16:45:46.008Z,28.37
2016-09-15T16:46:45.369Z,28.27
2016-09-15T16:47:46.378Z,28.29
2016-09-15T16:48:45.947Z,28.19
2016-09-15T16:49:46.027Z,28.19
2016-09-15T16:50:45.039Z,28.26
2016-09-15T16:51:46.707Z,28.3
2016-09-15T16:52:45.600Z,28.35
2016-09-15T16:53:45.246Z,28.3
2016-09-15T16:54:47.004Z,28.22
2016-09-15T16:55:46.313Z,28.05
2016-09-15T16:56:46.142Z,28.11
2016-09-15T16:57:45.742Z,27.86
2016-09-15T16:58:45.938Z,28.04
2016-09-15T16:59:45.174Z,27.96
2016-09-15T17:00:46.324Z,27.83
2016-09-15T17:01:45.162Z,27.89
2016-09-15T17:02:45.352Z,27.77
2016-09-15T17:03:46.007Z,27.71
2016-09-15T17:04:46.304Z,27.68
2016-09-15T17:05:45.003Z,27.73
2016-09-15T17:06:45.636Z,27.73
2016-09-15T17:07:45.833Z,27.59
2016-09-15T17:08:47.565Z,27.42
2016-09-15T17:09:46.411Z,27.36
2016-09-15T17:10:45.616Z,27.37
2016-09-15T17:11:47.972Z,27.4
2016-09-15T17:12:48.239Z,27.4
2016-09-15T17:13:46.001Z,27.37
2016-09-15T17:14:46.805Z,27.36
2016-09-15T17:15:47.156Z,27.12
2016-09-15T17:16:46.161Z,27.18
2016-09-15T17:17:46.184Z,27.18
2016-09-15T17:18:46.520Z,26.89
2016-09-15T17:19:46.377Z,27.15
2016-09-15T17:20:47.746Z,27.22
2016-09-15T17:21:48.141Z,27.29
2016-09-15T17:22:45.911Z,27.08
2016-09-15T17:23:47.295Z,26.84
2016-09-15T17:24:47.751Z,26.63
2016-09-15T17:25:45.839Z,26.55
2016-09-15T17:26:46.281Z,26.43
2016-09-15T17:27:46.826Z,26.38
2016-09-15T17:28:47.620Z,26.47
2016-09-15T17:29:47.147Z,26.29
2016-09-15T17:30:47.345Z,26.44
2016-09-15T17:31:46.235Z,26.34
2016-09-15T17:32:46.152Z,26.09
2016-09-15T17:33:47.915Z,25.99
2016-09-15T17:34:47.709Z,26.26
2016-09-15T17:35:46.481Z,26.16
2016-09-15T17:36:46.254Z,26.33
2016-09-15T17:37:47.344Z,26.07
2016-09-15T17:38:51.039Z,25.9
2016-09-15T17:39:47.537Z,26.03
2016-09-15T17:40:47.152Z,26.19
2016-09-15T17:41:47.633Z,26.02
2016-09-15T17:42:47.819Z,26.02
2016-09-15T17:43:46.940Z,25.99
2016-09-15T17:44:47.647Z,25.84
2016-09-15T17:45:47.074Z,25.85
2016-09-15T17:46:47.123Z,25.68
2016-09-15T17:47:47.456Z,25.93
2016-09-15T17:48:48.091Z,25.69
2016-09-15T17:49:47.189Z,25.59
2016-09-15T17:50:46.616Z,25.55
2016-09-15T17:51:47.422Z,25.47
2016-09-15T17:52:46.645Z,25.53
2016-09-15T17:53:48.740Z,25.53
2016-09-15T17:54:48.162Z,25.59
2016-09-15T17:55:48.709Z,25.59
2016-09-15T17:56:47.330Z,25.31
2016-09-15T17:57:48.073Z,25.33
2016-09-15T17:58:49.632Z,25.16
2016-09-15T17:59:48.204Z,25.22
2016-09-15T18:00:48.132Z,25.4
2016-09-15T18:01:47.550Z,25.26
2016-09-15T18:02:47.697Z,25.16
2016-09-15T18:03:51.399Z,25.14
2016-09-15T18:04:47.480Z,25.14
2016-09-15T18:05:49.208Z,24.99
2016-09-15T18:06:47.617Z,24.99
2016-09-15T18:07:49.382Z,24.91
2016-09-15T18:08:47.834Z,24.92
2016-09-15T18:09:48.433Z,24.89
2016-09-15T18:10:46.972Z,24.7
2016-09-15T18:11:48.420Z,24.7
2016-09-15T18:12:47.585Z,24.69
2016-09-15T18:13:47.952Z,24.76
2016-09-15T18:14:47.616Z,24.66
2016-09-15T18:15:47.469Z,24.76
2016-09-15T18:16:46.918Z,24.58
2016-09-15T18:17:47.515Z,24.43
2016-09-15T18:18:47.895Z,24.38
2016-09-15T18:19:47.464Z,24.39
2016-09-15T18:20:47.944Z,24.45
2016-09-15T18:21:48.702Z,24.45
2016-09-15T18:22:46.982Z,24.24
2016-09-15T18:23:47.938Z,24.29
2016-09-15T18:24:48.465Z,24.36
2016-09-15T18:25:47.742Z,24.28
2016-09-15T18:26:47.429Z,24.35
2016-09-15T18:27:46.274Z,24.17
2016-09-15T18:28:46.905Z,24.13
2016-09-15T18:29:48.279Z,24.17
2016-09-15T18:30:48.354Z,24.11
2016-09-15T18:31:50.320Z,24.3
2016-09-15T18:32:48.196Z,24.28
2016-09-15T18:33:47.643Z,24.2
2016-09-15T18:34:49.451Z,24.08
2016-09-15T18:35:47.991Z,24.03
2016-09-15T18:36:48.179Z,23.83
2016-09-15T18:37:48.861Z,23.83
2016-09-15T18:38:48.109Z,23.81
2016-09-15T18:39:48.304Z,23.74
2016-09-15T18:40:48.802Z,23.83
2016-09-15T18:41:49.941Z,23.56
2016-09-15T18:42:47.970Z,23.34
2016-09-15T18:43:48.135Z,23.31
2016-09-15T18:44:48.437Z,23.36
2016-09-15T18:45:48.221Z,23.18
2016-09-15T18:46:48.777Z,23.2
2016-09-15T18:47:48.523Z,22.85
2016-09-15T18:48:48.277Z,22.94
2016-09-15T18:49:48.582Z,23.02
2016-09-15T18:50:49.497Z,22.85
2016-09-15T18:51:49.149Z,22.76
2016-09-15T18:52:48.434Z,22.98
2016-09-15T18:53:49.183Z,22.88
2016-09-15T18:54:49.086Z,22.55
2016-09-15T18:55:48.153Z,22.6
2016-09-15T18:56:48.095Z,22.6
2016-09-15T18:57:49.995Z,22.5
2016-09-15T18:58:48.667Z,22.35
2016-09-15T18:59:49.377Z,22.38
2016-09-15T19:00:48.967Z,22.33
2016-09-15T19:01:49.930Z,22.33
2016-09-15T19:02:50.171Z,22.2
2016-09-15T19:03:48.916Z,22.18
2016-09-15T19:04:49.743Z,22.18
2016-09-15T19:05:48.932Z,22.29
2016-09-15T19:06:48.933Z,22.25
2016-09-15T19:07:49.036Z,22.04
2016-09-15T19:08:47.803Z,22.06
2016-09-15T19:09:49.754Z,22.23
2016-09-15T19:10:49.468Z,22.17
2016-09-15T19:11:48.108Z,22.22
2016-09-15T19:12:49.361Z,22.08
2016-09-15T19:13:49.687Z,21.96
2016-09-15T19:14:49.275Z,22.07
2016-09-15T19:15:49.495Z,22.14
2016-09-15T19:16:50.909Z,21.99
2016-09-15T19:17:49.732Z,21.92
2016-09-15T19:18:49.586Z,21.75
2016-09-15T19:19:49.276Z,21.92
2016-09-15T19:20:49.120Z,21.7
2016-09-15T19:21:48.918Z,21.75
2016-09-15T19:22:50.334Z,21.6
2016-09-15T19:23:50.209Z,21.61
2016-09-15T19:24:48.619Z,21.46
2016-09-15T19:25:49.395Z,21.4
2016-09-15T19:26:49.091Z,21.52
2016-09-15T19:27:49.509Z,21.67
2016-09-15T19:28:48.972Z,21.6
2016-09-15T19:29:50.926Z,21.35
2016-09-15T19:30:48.579Z,21.42
2016-09-15T19:31:49.761Z,21.29
2016-09-15T19:32:49.651Z,21.17
2016-09-15T19:33:50.436Z,21.09
2016-09-15T19:34:49.802Z,21.14